To NAV CANADA Home Page Login to a new session Search on AWWS site Feedback and Comments Disclaimer Vers la page française équivalente Tips FAQ What's new on the site To the Forecasts and Observations / NOTAM section To "File a Flight Plan" website Publications and other links Update of the User's profile FIC Telephone Numbers My Weather Data Folder Route Weather Data Regional Weather Data Local Weather Data To the Forecasts and Observations / NOTAM section
Request Generated 07/06/2015 at 13:41:46 UTC . Weather information available at that time is displayed.

METAR/TAF

EDMONTON/EDMONTON INTL/AB    

METAR CYEG 061300Z 15004KT 15SM FEW240 09/07 A3016 RMK CI1 CI TR
SLP221=
METAR CYEG 061200Z 17005KT 15SM FEW180 FEW240 06/04 A3016 RMK AC1CI1
AC TR SLP225=
METAR CYEG 061100Z 18006KT 15SM FEW180 FEW240 05/04 A3016 RMK AC1CI1
SLP225=

TAF CYEG 061138Z 0612/0712 18006KT P6SM FEW180
BECMG 0614/0616 18012KT
FM070000 22005KT P6SM SKC
BECMG 0701/0703 26008KT
FM070900 27010KT P6SM SKC
BECMG 0710/0712 34012KT
RMK NXT FCST BY 061500Z=
Your time UTC time
Weather data provided by Environment Canada and NAV CANADA